Pagrindinis puslapis
METAR-TAF:

METAR-TAF

Oro uostai :

Rafha, Saudo Arabija

platuma: 29-37N, ilguma: 043-29E, Aukštis: 449 m

Dabartinis oras

Ataskaita buvo paskelbta 57 minutes, ne 23:00 UTC
Vėjas 4 kt iš Šiaurės Vakarų
Temperatūra 27°C
Drėgmė 24%
Slėgis 1013 hPa
Matomumas 10 km arba daugiau
nėra debesų žemiau 1500 m ir nėra kamuolinių lietaus debesų

METAR: OERF 272300Z 31004KT CAVOK 27/05 Q1013

Laikas: 02:57 (23:57 UTC)

Prognozė

Ataskaita buvo paskelbta 57 minutes, ne 23:00 UTC
Prognozė galioja nuo 28 metu 00 UTC su 29 metu 06 UTC
Vėjas 8 kt iš Vakarų
Matomumas: 7000 m
Tapsmas
nuo 28 metu 06 UTC su 28 metu 08 UTC
Vėjas 18 kt iš Šiaurės/Šiaurės Vakarų
Laikinai
nuo 28 metu 06 UTC su 28 metu 14 UTC
Matomumas: 4000 m
Dulkes pustymas
Tapsmas
nuo 28 metu 18 UTC su 28 metu 20 UTC
Vėjas 8 kt iš Vakarų/Šiaurės Vakarų

TAF: OERF 272300Z 2800/2906 28008KT 7000 NSC BECMG 2806/2808 34018KT TEMPO 2806/2814 4000 BLDU BECMG 2818/2820 29008KT

Orai ataskaitas ir orų prognozės (METAR, TAF).

turimą stotys yra geltonos ir raudonos taškus žemėlapyje.

Perkelti pele per norėdami pamatyti stoties vardą.

Tada spustelėkite, norėdami matyti oro stebėjimo ir prognozės.

Norėdami pakeisti žemėlapį: spustelėkite ant žalios mygtukų su juodo kryžiaus žemyn,; žalią mygtuką su brūkšneliu, jei norite nutolinti; arba žalių rodyklių gretimoms žemėlapius.


METAR-TAF: